Plvs Vltra — ZGFL3 — position and weather

sailwx.info

Track history (hours):
 
Tides and Currents Weather Stations Pressure Air Temp Water Temp Dewpoint Dewpoint Depression Visibility Wind Speed Wind Dir Waves Ship Positions

Plvs Vltra

Last reported at 2017-Nov-18 23:09 UTC. Time now 2017-Nov-22 05:40 UTC.
Position N 32°39' W 117°07'.

Length 74 m; draft 3.8 m.

Type: Pleasure craft. MMSI: 319091100.

Date/timePositionNaut miles runAvg speedWind from/ knotsBaromVisibWave heightAir tempDewpointWater temp
2017-Nov-18 23:09N 32°39' W 117°07'  
2017-Nov-09 21:04N 32°43' W 117°12'1 9.8
2017-Nov-09 20:58N 32°43' W 117°13'6 9.9
2017-Nov-09 20:22N 32°37' W 117°15'4 8.9
2017-Nov-09 19:56N 32°38' W 117°20'4 8.7
2017-Nov-09 19:29N 32°35' W 117°17'4 8.7
2017-Nov-09 19:00N 32°38' W 117°20'5 9.9
2017-Nov-09 18:29N 32°38' W 117°14'510.3
2017-Nov-09 18:00N 32°43' W 117°13'  
Track history (hours):
 
Tides and Currents Weather Stations Pressure Air Temp Water Temp Dewpoint Dewpoint Depression Visibility Wind Speed Wind Dir Waves Ship Positions

Plvs Vltra

Last reported at 2017-Nov-18 23:09 UTC. Time now 2017-Nov-22 05:40 UTC.
Position N 32°39' W 117°07'.

Length 74 m; draft 3.8 m.

Type: Pleasure craft. MMSI: 319091100.

Date/timePositionNaut miles runAvg speedWind from/ knotsBaromVisibWave heightAir tempDewpointWater temp
2017-Nov-18 23:09N 32°39' W 117°07'  
2017-Nov-09 21:04N 32°43' W 117°12'1 9.8
2017-Nov-09 20:58N 32°43' W 117°13'6 9.9
2017-Nov-09 20:22N 32°37' W 117°15'4 8.9
2017-Nov-09 19:56N 32°38' W 117°20'4 8.7
2017-Nov-09 19:29N 32°35' W 117°17'4 8.7
2017-Nov-09 19:00N 32°38' W 117°20'5 9.9
2017-Nov-09 18:29N 32°38' W 117°14'510.3
2017-Nov-09 18:00N 32°43' W 117°13'  

Dump ship's entire track history